CST,Max TemperatureF,Mean TemperatureF,Min TemperatureF,Max Dew PointF,MeanDew PointF,Min DewpointF,Max Humidity, Mean Humidity, Min Humidity, Max Sea Level PressureIn, Mean Sea Level PressureIn, Min Sea Level PressureIn, Max VisibilityMiles, Mean VisibilityMiles, Min VisibilityMiles, Max Wind SpeedMPH, Mean Wind SpeedMPH, Max Gust SpeedMPH,PrecipitationIn, CloudCover, Events, WindDirDegrees
2013-2-1,64,54,44,39,32,21,71,49,27,30.40,30.35,30.32,10,10,10,15,8,18,0.00,0,,346
2013-2-2,62,50,38,49,35,20,77,59,40,30.39,30.29,30.19,10,10,10,14,5,17,0.00,0,,126
2013-2-3,69,59,48,51,40,26,93,57,21,30.26,30.18,30.12,10,10,10,14,7,18,0.00,1,,311
2013-2-4,64,56,47,54,44,32,86,67,47,30.13,30.07,29.99,10,10,10,9,4,13,T,2,Rain,93
2013-2-5,67,61,55,59,57,54,93,83,73,30.04,30.01,29.97,10,10,4,9,3,13,0.33,6,Rain,81
2013-2-6,68,62,56,59,56,55,100,84,68,30.17,30.08,30.04,10,5,0,10,4,17,0.00,4,Fog,67
2013-2-7,77,67,57,62,59,54,97,74,50,30.04,29.89,29.80,10,7,0,26,8,31,3.22,6,Fog-Rain,29
2013-2-8,72,62,51,59,53,48,100,79,57,30.16,30.03,29.95,10,6,0,16,5,22,0.00,3,Fog,339
2013-2-9,62,55,47,54,47,41,93,74,55,30.27,30.19,30.16,10,10,8,13,7,18,0.00,2,,78
2013-2-10,71,63,54,68,61,52,97,89,81,30.15,30.09,30.00,10,8,3,22,14,30,0.05,7,Rain,129
2013-2-11,79,69,59,70,63,55,97,86,74,30.10,30.06,30.02,10,8,2,18,10,25,0.61,8,Rain-Thunderstorm,234
2013-2-12,72,66,59,70,62,55,93,87,81,30.05,29.92,29.79,10,7,1,24,11,32,0.22,8,Rain,122
2013-2-13,71,60,48,68,55,43,93,71,48,30.06,29.89,29.79,10,9,6,21,9,26,0.18,5,Rain,292
2013-2-14,59,51,42,41,39,37,89,68,47,30.16,30.09,30.04,10,10,10,13,5,16,0.00,0,,4
2013-2-15,66,53,39,43,39,33,96,64,31,30.18,30.10,30.05,10,10,6,13,6,16,0.00,0,,317
2013-2-16,56,47,38,39,26,14,71,47,22,30.29,30.16,30.06,10,10,10,28,13,36,T,2,Rain,329
2013-2-17,54,43,32,34,22,14,66,44,22,30.40,30.33,30.29,10,10,10,13,5,15,0.00,0,,188
2013-2-18,65,52,38,53,42,34,92,68,43,30.32,30.24,30.08,10,10,10,24,11,29,T,3,,144
2013-2-19,69,57,45,61,51,28,90,59,28,30.21,30.08,30.01,10,9,2,23,12,30,0.52,6,Rain,285
2013-2-20,59,50,41,37,28,21,76,50,24,30.27,30.18,30.10,10,10,8,10,5,16,0.00,0,,22
2013-2-21,66,54,42,63,50,31,93,69,44,30.11,30.00,29.93,10,9,4,20,9,25,0.00,5,,109
2013-2-22,71,68,65,70,66,64,100,94,87,29.97,29.92,29.88,10,4,0,18,7,22,1.36,8,Fog-Rain-Thunderstorm,157
2013-2-23,71,65,58,70,61,55,97,92,87,29.96,29.88,29.80,10,8,0,15,8,25,0.47,8,Fog-Rain-Thunderstorm,326
2013-2-24,72,63,53,57,54,51,93,73,53,30.00,29.93,29.83,10,8,2,12,6,14,0.00,6,Rain-Thunderstorm,58
2013-2-25,69,64,59,65,60,57,93,83,73,29.89,29.72,29.55,10,6,2,22,12,28,3.65,8,Rain-Thunderstorm,94
2013-2-26,67,60,53,66,49,39,81,65,49,29.93,29.70,29.54,10,9,2,24,13,32,0.22,3,Rain,248
2013-2-27,64,56,47,48,42,36,86,63,39,30.04,29.98,29.93,10,10,10,17,6,21,0.00,0,,261
2013-2-28,62,54,46,47,34,27,86,57,28,30.08,30.03,29.98,10,10,10,18,10,23,0.00,0,,324